Terminal Aerodrome Forecast
Issued by NWS

Home | Current Version | Previous Version | Text Only | Print | Product List | Glossary On
Versions: 1 2 3 4 5 6 7 8 9 10 11 12
000
FTUS45 KRIW 202325
TAFBPI
TAF
KBPI 202325Z 2100/2124 31009KT P6SM VCSH SCT020 BKN040
     FM210400 34007KT 3SM -SN SCT015 BKN030
     FM210800 01005KT P6SM VCFG SCT005 BKN015
     FM211500 32012G18KT P6SM SCT015 BKN030=

USA.gov is the U.S. government's official web portal to all federal, state and local government web resources and services.